Overblog Suivre ce blog
Editer l'article Administration Créer mon blog
16 janvier 2013 3 16 /01 /janvier /2013 09:12

A l'issue de la dixième étape Déspret reprend en mains le classement du Dakar 2013

 

dakar_2013-despres.jpg

 

Classement provisoir du Dakar moto après la dixième étape

 

1. 001 DESPRES CYRIL KTM RED BULL RALLY FACTORY TEAM KTM - 450CC RALLYE 30:47:04 -
2. 011 FARIA RUBEN KTM RED BULL RALLY FACTORY TEAM KTM - 450CC RALLY 30:48:41 00:01:37
3. 007 LOPEZ CONTARDO FRANCISCO CHALECO TAMARUGAL HONDA RACING XC RALLY TEAM KTM - 450 RALLY REPLICA 31:00:45 00:13:41
4. 032 JAKES IVAN NAD RESS ADVENTURE TEAM KTM - 450 RALLY REPLICA 31:05:25 00:18:21
5. 017 BOTTURI ALESSANDRO HUSQVARNA RALLYE TEAM BY SPEEDBRAIN HUSQVARNA - Rally 450 RR 31:11:29 00:24:25
6. 003 RODRIGUES HELDER TEAM HRC HONDA - CRF450 DAKAR X 31:21:23 00:34:19
7. 006 SVITKO STEFAN ORAVING SLOVAKIA TEAM KTM - 450 RALLY REPLICA 31:26:26 00:39:22
8. 012 PEDRERO GARCIA JUAN KTM MRW RALLY DAKAR TEAM KTM - 450 RALLY REPLICA 31:27:22 00:40:18
9. 009 PAIN OLIVIER YAMAHA RACING FRANCE YAMAHA - 450 YZF RALLY 31:34:06 00:47:02
10. 092 ISRAEL ESQUERRE JEREMIAS HONDA EUROPE HONDA - CRF450 31:34:10 00:47:06
11. 030 PIZZOLITO JAVIER TEAM HRC HONDA - CRF450 DAKAR X 31:40:12 00:53:08
12. 026 GOUET DANIEL TAMARUGAL HONDA RACING XC RALLY TEAM HONDA - CRF 450 X 31:41:25 00:54:21
13. 015 VERHOEVEN FRANS YAMAHA THE NETHERLANDS - VERHOEVEN YAMAHA - YZ450F 31:46:49 00:59:45
14. 040 VAN NIEKERK RIAAN BROADLINK KTM RALLY FACTORY TEAM KTM - 450 REPLICA 31:54:19 01:07:15
15. 018 PRZYGONSKI JAKUB ORLEN TEAM KTM - 450 RALLY REPLICA 31:58:32 01:11:28
16. 123 FAGGOTTER RODNEY YAMAHA AUSTRALIA YAMAHA - YZ450 RALLY 32:12:21 01:25:17
17. 020 GONÇALVES PAULO HUSQVARNA RALLYE TEAM BY SPEEDBRAIN HUSQVARNA - RALLY 450 RR 32:17:01 01:29:57
18. 037 CURTIS DARRYL BROADLINK KTM RALLY FACTORY TEAM KTM - 450 REPLICA 32:32:59 01:45:55
19. 057 GRABHAM BEN HSE KTM AUSTRALIA KTM - 450RR 32:47:55 02:00:51
20. 034 METGE MICHAEL YAMAHA RACING FRANCE YAMAHA - 450 YZF 32:50:06 02:03:02
21. 008 ULLEVALSETER PAL TEAM ULLEVALSETER KTM - 450 RALLY REPLICA 32:56:55 02:09:51
22. 027 KNUIMAN HENK EQUIPE KNUIMAN KTM - 450 RALLY REPLICA 33:02:23 02:15:19
23. 031 GUASCH MARC GAS GAS GAS - GAS - FR RALLY 450 33:16:28 02:29:24
24. 041 PROHENS FELIPE TAMARUGAL HONDA RACING XC RALLY TEAM HONDA - CRF 450X RALLY 33:25:03 02:37:59
25. 019 CZACHOR JACEK ORLEN TEAM KTM - 450 RALLY REPLICA 33:31:40 02:44:36
26. 049 RODRIGUEZ PABLO HONDA RACING ARGENTINA HONDA - CRF 450X 33:31:57 02:44:53
27. 005 BARREDA BORT JOAN HUSQVARNA RALLYE TEAM BY SPEEDBRAIN HUSQVARNA - RALLY 450 RR 33:52:06 03:05:02
28. 028 DE AZEVEDO JEAN BRASIL DAKAR KTM - 450 RALLY REPLICA 33:55:25 03:08:21
29. 102 REEVE DAVID GREGORY DAKAR TEAM J.O.P. KTM - 450 RR 34:08:18 03:21:14
30. 043 WATT STANLEY FRONT ROW GB KTM - 450 RR 34:09:41 03:22:37
31. 131 STRANGE WARREN GHR HONDA HONDA - CRF450X 34:10:51 03:23:47
32. 162 FORMAN TIM FRONT ROW GB KTM - 450 RR 34:13:36 03:26:32
33. 052 RIOS FELIPE KTM PERU RALLY TEAM KTM - 450 RALLY REPLICA 34:14:41 03:27:37
34. 014 DUCLOS ALAIN CROCOAVENTURES SHERCO - 450 SR 34:21:22 03:34:18
35. 048 LIEFHEBBER HANS-JOS LIEFHEBBER KTM - 450 RR 34:22:35 03:35:31
36. 029 CASELLI KURT KTM AMV-RED BULL FACTORY TEAM KTM - 450 RALLY REPLICA 34:50:02 04:02:58
37. 087 SOUVIGNET ROMAIN TEAM CASTEU ADVENTURE YAMAHA - YZ-F 450 34:50:23 04:03:19
38. 077 CARDONA VAGNONI NICOLAS ALBERTO TEAM VENEZUELA PEDREGA YAMAHA - WR450 34:55:56 04:08:52
39. 156 SMITH TODD GHR HONDA HONDA - CRF450X 35:12:51 04:25:47
40. 103 PATRÃO MÁRIO TEAM BIANCHI PRATA SUZUKI - RMZ 450 RALLY 35:17:49 04:30:45
41. 148 VAN GERVEN JAN BAS DAKAR TEAM KTM - 450 RALLY REPLICA 35:44:39 04:57:35
42. 065 PABISKA DAVID KM RACING TEAM YAMAHA - WR 450 F 35:50:05 05:03:01
43. 050 SALVATIERRA JUAN CARLOS TEAM HONDA EUROPE HONDA - CRF 450X 35:55:31 05:08:27
44. 035 BERGLUND THOMAS HUSABERG RALLY TEAM SCANDINAVIA HUSABERG - FE 450 36:01:38 05:14:34
45. 168 POSKITT LYNDON FRONT ROW GB KTM - 450 RR 36:14:04 05:27:00
46. 042 PROHENS JAIME TAMARUGAL HONDA RACING XC RALLY TEAM HONDA - CRF 450X RALLY 36:14:09 05:27:05
47. 062 ARREDONDO FRANCISCO FRANCISCO ARREDONDO KTM - 450 RALLY 36:17:51 05:30:47
48. 119 DESPONTIN MIKAEL DEFI SUISSE DAKAR KTM - 450 RALLY REPLICA 36:34:30 05:47:26
49. 101 WALDSCHMIDT INGO OROBICA RAID KTM - 450 RR 36:36:22 05:49:18
50. 147 VAN PELT ROBERT TEAM VAN PELT HONDA - 450 PE06 36:40:43 05:53:39
51. 070 DEMELCHORI DIEGO RPM KAWASAKI KAWASAKI - KLX 450 - 2012 36:54:45 06:07:41
52. 033 CAMPBELL JOHNNY HONDA RACING HONDA - CRF450 RALLY 36:56:19 06:09:15
53. 059 CARILLON PATRICE AL DESERT KTM - 450CC 36:58:34 06:11:30
54. 069 PAYEN HUGO
YAMAHA - 450 WRF 37:16:20 06:29:16
55. 146 MARTENS SJAAK EQUIPE KNUIMAN KTM - 450 RALLY REPLICA 37:23:12 06:36:08
56. 089 CUMMINGS BRETT GHR HONDA HONDA - CRF450X 37:23:26 06:36:22
57. 082 GUINDANI VINCENT TEAM VIZION RACING YAMAHA - YZR 450 37:25:10 06:38:06
58. 083 VAN GINKEL ALEXANDER MEMO TOURS KTM - 450 RR 37:33:21 06:46:17
59. 196 VILLARRUBIA JULIAN
YAMAHA - JVO 450 YZ 37:39:15 06:52:11
60. 086 GADIOUX FRANCIS TEAM ADVENTURES HONDA - 450 CRFX 37:39:38 06:52:34
61. 111 VALERO RAMOS ANTONIO JVO RACING YAMAHA - WR 450 37:47:17 07:00:13
62. 137 BUSQUETS ALEX TEAM BUSQUETS HUSQVARNA - TE 449 RR 38:09:17 07:22:13
63. 072 PASCUAL PABLO OSCAR JINCHENG TEAM JINCHENG - JC 450 38:14:34 07:27:30
64. 051 PAVEY SIMON DELTA KUNSTAFFE HUSQVARNA UK HUSQVARNA - TE 449 38:15:02 07:27:58
65. 154 BEAULÉ PATRICK ALDO RACING KTM - 450 RALLYE REPLICA 38:15:33 07:28:29
66. 159 AGUILAR JORGE EL SALVADOR AL DAKAR 2013 KTM - 450 RALLYE REPLICA 38:20:21 07:33:17
67. 024 WEST JAMES CROCOAVENTURES SHERCO - SR 450 38:33:55 07:46:51
68. 109 SAGHMEISTER GABOR SAGHMEISTER TEAM KTM - 450 38:43:09 07:56:05
69. 100 CROQUELOIS ERIC
YAMAHA - YZF 38:49:12 08:02:08
70. 116 BORRELL GONZALEZ JOSE ISRAEL TEAM KTM SOCOPUR KTM - 450 RALLY 39:00:29 08:13:25
71. 115 BOLLERO RODOLFO LOS PERALTES RACING TEAM KTM - 450 RALLY 39:04:41 08:17:37
72. 044 BIANCHI PRATA PEDRO TEAM BIANCHI PRATA HUSQVARNA - TE449 RALLY 39:07:03 08:19:59
73. 108 GABARI HARITE HFP YAMAHA - YZF 450 39:11:07 08:24:03
74. 056 MENARD JEAN-CHRISTOPHE
YAMAHA - YZF 450 39:24:12 08:37:08
75. 054 CAVELIUS PHILIPPE
KTM - 450 RALLY 2013 39:27:46 08:40:42
76. 121 SERRA RIPOLL DAVID LLEIDA DAKAR YAMAHA - UVR 450 39:33:12 08:46:08
77. 192 VAN GEEL MARCO BAS DAKAR TEAM KTM - 450 RALLY REPLICA 39:43:50 08:56:46
78. 098 LUCCHESE MANUEL
TM - 450 RALLY 39:47:52 09:00:48
79. 164 HIRIGOYEN ANDRE TEAM XRAIDS YAMAHA - 450 WR 39:48:49 09:01:45
80. 047 DABROWSKI MAREK ORLEN TEAM KTM - 450 RALLY 39:58:31 09:11:27
81. 078 ERASO ANGLADE RAFAEL ERNESTO TEAM VENEZUELA PEDREGA YAMAHA - VR450 40:01:54 09:14:50
82. 160 CABRERA PATRICIO KAWASAKI CHILE TEAM KAWASAKI - KLX 450 40:02:24 09:15:20
83. 084 ILLANES RODRIGO TARAPACA RALLY TEAM YAMAHA - WR 450 40:03:51 09:16:47
84. 088 REINIKE MARCO MARCO REINIKE KTM - RALLY REPLICA 40:05:05 09:18:01
85. 067 SNIJDERS MARCEL
HONDA - CRF450X 40:36:49 09:49:45
86. 096 COTTET PHILIPPE DEFI SUISSE DAKAR KTM - 450 REPLICA RALLY 40:36:56 09:49:52
87. 167 ORTIZ JUAN CRUZ PCP ASISTENCIA KAWASAKI - KLX 450 R 40:38:53 09:51:49
88. 107 BOUNDS CRAIG CRAIG BOUNDS KTM - 450 RR 40:57:40 10:10:36
89. 149 ZAHN INGO TEAM KAISER KTM - 450 RALLYE REPLICA 41:26:46 10:39:42
90. 151 BELÁUSTEGUI JUAN MANUEL JVO RACING YAMAHA - WR 450 F 41:28:16 10:41:12
91. 127 BOYER NICOLAS NICOLAS MOTOS HONDA - 400 XR 41:28:25 10:41:21
92. 120 BASSI GUSTAVO YAMAHA PERGAMINO MOTOS YAMAHA - 450 WR 41:36:51 10:49:47
93. 013 FARRES GUELL GERARD WILD WOLF HONDA - HM CRF 450 X AR 12 EVO 41:45:58 10:58:54
94. 125 KREIDL FERDINAND KLS RALLY RAID TEAM KTM - 450 Rallye Factory Replica 41:49:56 11:02:52
95. 184 MORENO KRISTIANSEN MATEO FREEDOM RALLY RACING KTM - 450 XC-W 41:51:22 11:04:18
96. 143 SMITH ESTEBAN MOTO 1 KTM - 450 Rally Replica 41:51:51 11:04:47
97. 038 ZANOTTI ALESSANDRO TM RACING FACTORY TEAM TM - RALLY S13 41:56:46 11:09:42
98. 097 PYTHOUD MICHEL DEFI SUISSE DAKAR KTM - 450 REPLICA RALLY 42:06:43 11:19:39
99. 099 MUTELET OLIVIER TEAM AL DESERT YAMAHA - 450 WRF 42:32:10 11:45:06
100. 153 MAURI FABIO FRANCO PICCO RACING YAMAHA - 450 WRF 42:35:50 11:48:46
101. 158 VELLUTINO CARLO PERUANOS AL DAKAR KTM - 450 RALLYE REPLICA 42:43:11 11:56:07
102. 195 ZUMARAN CESAR TARAPACA RALLY TEAM YAMAHA - WR450 42:49:39 12:02:35
103. 171 NAPODANO LORENZO ENDUROLOGY HONDA - CRF450 X RALLY 44:28:35 13:41:31
104. 170 RAMPOLLA STEFANO ENDUROLOGY HONDA - CRF450 X RALLY 44:33:45 13:46:41
105. 114 AMENGUAL MARTIN AMERIAN RACING TEAM YAMAHA - WR 450 con kit JVO 44:39:53 13:52:49
106. 132 DE GROOT Richard.M.J.N. RICHARD DE GROOT HONDA - CRF450X 44:44:19 13:57:15
107. 141 MASSADOR PATRICE TEAM AL DESERT HONDA - 450 CRF 45:25:53 14:38:49
108. 190 SARMIENTO JUAN ESTEBAN JVO RACING YAMAHA - 450 WRF 45:53:47 15:06:43
109. 193 VAN HEERTUM CASPAR BAS DAKAR TEAM KTM - 450 RALLY REPLICA 46:13:08 15:26:04
110. 163 HUIGEVOORT MARTINUS BAS DAKAR TEAM KTM - 450 RALLYE REPLICA 46:22:00 15:34:56
111. 063 LAZARD LAURENT MOTO TEAM BY ELF YAMAHA - WR 450 46:25:10 15:38:06
112. 174 NAMCHIN LKHAMAA NAKATA MOTORS MONGOLIA YAMAHA - WR 450 F RALLY 46:25:21 15:38:17
113. 074 MARTINEZ PACO TEAM RPM KAWASAKI KAWASAKI - KX 450 46:55:55 16:08:51
114. 189 SALDARRIAGA MARCO ANTONIO FREEDOM CYCLE KTM - 450 XC-W 47:04:23 16:17:19
115. 179 NIJEN TWILHAAR JAN BASTIAAN BAS DAKAR TEAM KTM - 450 RALLY REPLICA 47:06:34 16:19:30
116. 053 VERHOESTRAETE FRANK CROCOAVENTURES SHERCO - 450 SR12 47:28:08 16:41:04
117. 036 SANZ LAIA GAS GAS GAS - GAS - EC 450 47:29:57 16:42:53
118. 136 SANTOS MARCELO JOSE AMS-HONDA HONDA - CRF450X 48:32:25 17:45:21
119. 081 ALAN EDUARDO MOTO TEAM BY ELF YAMAHA - WR 450 48:39:58 17:52:54
120. 079 QUERALES MALAVE GUSTABO ADOLFO TEAM VENEZUELA PEDREGA YAMAHA - WR450 48:43:38 17:56:34
121. 155 ECHEVERRI MEJIA JUAN ESTEBAN DAKAR MOTO COLOMBIA YAMAHA - WR 450 48:56:02 18:08:58
122. 191 SCHELLEKENS CASPAR BAS DAKAR TEAM KTM - 450 RALLY REPLICA 49:48:03 19:00:59
123. 094 WEI GUANGHUI JINCHENG TEAM JINCHENG - JC 450Y 50:43:55 19:56:51
124. 113 BARRON JACQUES PERUANOS AL DAKAR KTM - 450 EXC 51:34:01 20:46:57
125. 129 CAREVIC ANDRES EJERCITO DE CHILE - INSTITUTO NACIONAL D KTM - RALLY 450 54:03:58 23:16:54
126. 058 PUERTAS HERRERA MIGUEL GAS GAS YAMAHA - 450 RALLY 54:33:53 23:46:49
127. 126 BARBERY JUAN JOSE HELMET MOTOMAX RALLY TEAM YAMAHA - WR 450 55:08:19 24:21:15
128. 039 FISH MATT HUSQVARNA RALLYE TEAM BY SPEEDBRAIN HUSQVARNA - TE 449 RR 55:14:25 24:27:21
129. 185 THIERRY HERVE CAP DESERT YAMAHA - WRF 450 55:31:48 24:44:44
130. 161 CHICHIZOLA BRUNO PERUANOS AL DAKAR KTM - EXC 450 57:58:24 27:11:20
131. 118 MCKENDRICK JOHN TEAM YAMAHA CHILE YAMAHA - 450 X RALLY 58:00:38 27:13:34
132. 150 BELAUSTEGUI LUIS FREEDOM RALLY RACING KTM - XC 150CC JVO 74:06:40

43:19:36

 

 

 

paris dakar 2013louer une monoplace

 

Partager cet article

Repost 0
Published by jack sellertaux - dans dakar 2015
commenter cet article

commentaires